Time;durP1;ratioP1;P1;durP2;ratioP2;P2;SDS_P1;SDS_P2;PMS_P1;PMS_P2;Temp;Humidity;BMP_temperature;BMP_pressure;BME280_temperature;BME280_humidity;BME280_pressure;Samples;Min_cycle;Max_cycle;Signal;HPM_P1;HPM_P2
2022/02/01 00:03:36;;;;;;;9.65;5.93;;;;;;;2.66;71.25;97073.94;9934900;29;20538;-76
2022/02/01 00:15:11;;;;;;;8.95;5.25;;;;;;;2.60;70.81;97101.69;9934347;29;20055;-77
2022/02/01 00:37:10;;;;;;;9.65;5.30;;;;;;;2.58;71.04;97121.53;9923387;29;20118;-77
2022/02/01 00:42:31;;;;;;;8.38;5.50;;;;;;;2.64;70.96;97139.91;9912328;29;20122;-77
2022/02/01 00:47:52;;;;;;;8.15;4.75;;;;;;;2.64;70.63;97146.16;9914644;29;20293;-77
2022/02/01 00:53:13;;;;;;;9.15;5.00;;;;;;;2.70;71.06;97165.22;9943526;29;20177;-77
2022/02/01 00:58:33;;;;;;;7.60;4.60;;;;;;;2.64;70.96;97178.47;9949184;29;20100;-77
2022/02/01 01:03:54;;;;;;;9.73;5.03;;;;;;;2.58;71.03;97184.91;9943354;29;20047;-77
2022/02/01 01:09:15;;;;;;;12.05;5.72;;;;;;;2.57;70.69;97197.22;9937200;29;20466;-77
2022/02/01 01:53:54;;;;;;;15.43;5.68;;;;;;;2.13;71.22;97240.78;9944317;29;20099;-76
2022/02/01 01:59:16;;;;;;;13.00;5.50;;;;;;;2.16;70.82;97233.44;9931315;29;20053;-76
2022/02/01 02:04:37;;;;;;;11.75;5.43;;;;;;;2.13;71.07;97240.06;9930843;29;20477;-76
2022/02/01 02:09:59;;;;;;;11.73;5.70;;;;;;;2.15;71.48;97256.75;9931384;29;20053;-77
2022/02/01 02:15:48;;;;;;;13.60;6.00;;;;;;;2.10;70.75;97241.88;9916523;29;20059;-77
2022/02/01 02:21:09;;;;;;;15.32;6.20;;;;;;;2.08;71.00;97252.69;9930950;29;20562;-76
2022/02/01 02:26:30;;;;;;;16.92;6.28;;;;;;;2.09;71.24;97275.47;9943663;29;20184;-76
2022/02/01 02:31:54;;;;;;;11.73;5.82;;;;;;;2.11;70.86;97278.41;9930601;29;20070;-77
2022/02/01 02:37:17;;;;;;;15.93;6.97;;;;;;;2.12;71.56;97264.06;9930571;29;20174;-77
2022/02/01 02:48:18;;;;;;;17.05;6.60;;;;;;;2.05;70.77;97277.84;9915480;29;20061;-76
2022/02/01 02:53:42;;;;;;;15.70;6.97;;;;;;;2.01;71.01;97289.94;9931104;29;20047;-77
2022/02/01 02:59:03;;;;;;;21.42;6.25;;;;;;;1.96;70.57;97296.38;9920469;29;20515;-76
2022/02/01 03:04:28;;;;;;;14.80;6.35;;;;;;;1.89;70.25;97308.09;9936777;29;20497;-77
2022/02/01 03:09:49;;;;;;;;;;;;;;;1.85;70.83;97309.75;9924193;29;20516;-76
2022/02/01 03:15:34;;;;;;;15.55;5.68;;;;;;;1.77;70.42;97306.97;9924614;29;20316;-77
2022/02/01 03:20:50;;;;;;;18.67;6.32;;;;;;;1.64;70.79;97302.34;9949449;29;20054;-77
2022/02/01 03:26:11;;;;;;;15.13;5.82;;;;;;;1.53;71.03;97299.16;9936237;29;20050;-77
2022/02/01 03:31:33;;;;;;;15.23;6.40;;;;;;;1.46;71.20;97310.91;9935750;29;20130;-77
2022/02/01 03:36:54;;;;;;;16.02;6.22;;;;;;;1.42;71.53;97322.22;9936009;29;20062;-76
2022/02/01 03:42:15;;;;;;;17.45;6.90;;;;;;;1.50;70.86;97327.78;9935716;29;20055;-77
2022/02/01 03:47:36;;;;;;;15.32;6.05;;;;;;;1.53;71.04;97327.41;9935552;29;20513;-77
2022/02/01 03:52:57;;;;;;;17.05;6.18;;;;;;;1.58;71.33;97340.28;9935251;29;20481;-76
2022/02/01 03:58:18;;;;;;;16.05;6.15;;;;;;;1.70;70.98;97341.44;9934223;29;20053;-77
2022/02/01 04:03:39;;;;;;;20.10;6.00;;;;;;;1.91;71.05;97357.81;9934861;29;20516;-76
2022/02/01 04:09:00;;;;;;;16.15;6.38;;;;;;;2.03;70.75;97371.25;9934823;29;20065;-76
2022/02/01 04:14:25;;;;;;;13.07;5.47;;;;;;;2.13;70.23;97380.50;9946336;29;20065;-77
2022/02/01 04:19:54;;;;;;;15.68;5.07;;;;;;;2.19;69.65;97378.28;9945735;29;20417;-76
2022/02/01 04:25:23;;;;;;;12.95;4.85;;;;;;;2.22;69.78;97382.69;9943752;29;20398;-76
2022/02/01 04:30:45;;;;;;;11.20;5.10;;;;;;;2.26;69.94;97383.81;9933663;29;20050;-76
2022/02/01 04:36:06;;;;;;;14.77;5.85;;;;;;;2.34;69.97;97372.09;9933896;29;20047;-77
2022/02/01 04:41:28;;;;;;;12.73;4.57;;;;;;;2.29;69.59;97370.97;9933031;29;20043;-76
2022/02/01 04:46:49;;;;;;;9.88;4.82;;;;;;;2.29;70.03;97373.72;9931860;29;20059;-77
2022/02/01 04:52:10;;;;;;;16.15;4.70;;;;;;;2.21;69.85;97384.72;9931024;29;20059;-76
2022/02/01 04:57:31;;;;;;;11.52;4.50;;;;;;;2.22;69.67;97393.69;9931582;29;20050;-76
2022/02/01 05:02:56;;;;;;;15.73;5.18;;;;;;;2.20;69.34;97410.03;9917464;29;20042;-76
2022/02/01 05:08:17;;;;;;;9.85;3.97;;;;;;;2.20;69.35;97423.81;9944560;29;20050;-76
2022/02/01 05:14:02;;;;;;;19.10;5.07;;;;;;;2.21;69.34;97426.00;9932457;29;20067;-77
2022/02/01 05:24:53;;;;;;;9.95;3.88;;;;;;;2.32;69.23;97441.50;9921971;29;20039;-77
2022/02/01 05:30:14;;;;;;;13.38;4.47;;;;;;;2.36;69.79;97446.63;9912301;29;20082;-76
2022/02/01 05:35:35;;;;;;;12.32;4.07;;;;;;;2.34;69.03;97433.41;9910532;29;20043;-77
2022/02/01 05:40:57;;;;;;;13.82;4.60;;;;;;;2.32;69.67;97419.47;9911487;29;20481;-76
2022/02/01 05:46:18;;;;;;;13.35;4.65;;;;;;;2.25;69.64;97409.88;9913150;29;20081;-77
2022/02/01 05:51:39;;;;;;;10.55;4.30;;;;;;;2.16;69.22;97412.44;9948634;29;20047;-76
2022/02/01 05:57:00;;;;;;;11.40;4.30;;;;;;;1.97;68.97;97421.72;9966915;29;20046;-77
2022/02/01 06:02:21;;;;;;;13.57;4.55;;;;;;;1.83;69.51;97425.13;9968722;29;20489;-76
2022/02/01 06:07:42;;;;;;;11.68;5.18;;;;;;;1.73;69.33;97422.16;9929266;29;20116;-77
2022/02/01 06:13:03;;;;;;;13.23;4.93;;;;;;;1.69;69.56;97422.50;9943332;29;20106;-76
2022/02/01 06:18:24;;;;;;;12.77;5.68;;;;;;;1.64;69.22;97433.66;9956031;29;20047;-76
2022/02/01 06:23:45;;;;;;;11.88;5.07;;;;;;;1.75;70.29;97447.13;9943265;29;20042;-76
2022/02/01 06:29:09;;;;;;;16.63;4.80;;;;;;;1.86;70.21;97451.59;9981112;29;20141;-76
2022/02/01 06:34:30;;;;;;;8.85;4.32;;;;;;;1.93;69.83;97462.63;9959281;29;20050;-76
2022/02/01 06:39:51;;;;;;;11.57;5.50;;;;;;;1.99;70.00;97465.22;9962370;29;20050;-76
2022/02/01 06:45:11;;;;;;;15.00;5.65;;;;;;;1.92;69.74;97485.19;9961828;29;20125;-77
2022/02/01 06:50:34;;;;;;;15.25;6.57;;;;;;;1.76;69.06;97494.66;9920727;29;20059;-76
2022/02/01 06:56:08;;;;;;;12.25;4.65;;;;;;;1.72;69.31;97495.72;9930670;29;20489;-77
2022/02/01 07:01:29;;;;;;;9.15;4.80;;;;;;;1.69;69.82;97505.06;9929463;29;20565;-76
2022/02/01 07:06:50;;;;;;;9.20;4.38;;;;;;;1.87;69.31;97497.84;9918896;29;20111;-77
2022/02/01 07:12:11;;;;;;;10.43;4.53;;;;;;;2.45;69.18;97507.47;9912189;29;20168;-76
2022/02/01 07:17:33;;;;;;;10.48;4.88;;;;;;;2.84;68.50;97503.53;9899243;29;20058;-78
2022/02/01 07:22:54;;;;;;;10.10;4.70;;;;;;;3.04;67.83;97523.97;9911628;30;20051;-78
2022/02/01 07:28:18;;;;;;;8.73;3.60;;;;;;;3.45;67.63;97500.81;9898971;29;20051;-78
2022/02/01 07:33:40;;;;;;;10.45;4.65;;;;;;;3.55;66.63;97506.50;9898597;30;20078;-78
2022/02/01 07:39:00;;;;;;;11.20;5.03;;;;;;;3.46;66.66;97507.06;9898695;30;20490;-78
2022/02/01 07:44:21;;;;;;;10.93;4.38;;;;;;;3.25;66.75;97504.50;9898242;29;20047;-79
2022/02/01 07:49:42;;;;;;;11.77;4.65;;;;;;;3.21;66.80;97517.19;9926106;29;20421;-78
2022/02/01 07:55:04;;;;;;;8.18;3.75;;;;;;;3.15;66.45;97504.31;9974788;29;20053;-78
2022/02/01 08:00:25;;;;;;;8.68;4.15;;;;;;;3.39;66.27;97505.06;9985146;29;20050;-78
2022/02/01 08:05:45;;;;;;;10.70;4.43;;;;;;;3.98;65.99;97505.53;9922103;29;20050;-78
2022/02/01 08:11:11;;;;;;;8.85;3.45;;;;;;;4.81;65.11;97503.72;9947219;29;20055;-78
2022/02/01 08:17:09;;;;;;;7.22;4.03;;;;;;;6.00;61.58;97503.94;9949473;29;20119;-79
2022/02/01 08:22:33;;;;;;;7.82;4.20;;;;;;;6.71;60.14;97497.00;9934071;29;20501;-78
2022/02/01 08:27:56;;;;;;;7.82;3.30;;;;;;;6.02;60.00;97495.03;9946865;29;20130;-77
2022/02/01 08:33:16;;;;;;;7.85;3.65;;;;;;;5.38;60.96;97502.25;9933679;29;20043;-77
2022/02/01 08:38:37;;;;;;;7.90;3.25;;;;;;;4.86;61.76;97482.69;9946138;29;20463;-77
2022/02/01 08:43:59;;;;;;;7.85;3.42;;;;;;;4.43;62.74;97481.06;9920688;29;20054;-78
2022/02/01 08:49:20;;;;;;;6.10;3.13;;;;;;;4.15;62.96;97485.63;9944814;29;20058;-78
2022/02/01 08:54:42;;;;;;;6.53;3.30;;;;;;;4.00;62.71;97497.44;9964832;29;20050;-78
2022/02/01 09:00:07;;;;;;;6.68;4.03;;;;;;;3.87;63.24;97488.63;9986672;29;20062;-78
2022/02/01 09:05:30;;;;;;;7.40;3.42;;;;;;;3.77;63.06;97488.47;9971228;29;20061;-78
2022/02/01 09:10:52;;;;;;;10.00;4.82;;;;;;;3.74;63.48;97492.31;9944853;29;20042;-78
2022/02/01 09:16:13;;;;;;;8.93;4.88;;;;;;;3.72;63.87;97484.59;9969783;29;20050;-78
2022/02/01 09:21:33;;;;;;;8.05;4.70;;;;;;;3.85;63.81;97496.72;9944907;29;20410;-77
2022/02/01 09:26:54;;;;;;;7.00;3.83;;;;;;;3.96;63.19;97512.91;9956643;29;20490;-78
2022/02/01 09:32:15;;;;;;;7.07;4.28;;;;;;;4.42;63.49;97510.72;9956602;29;20115;-77
2022/02/01 09:37:56;;;;;;;8.38;4.15;;;;;;;5.24;62.24;97487.97;9956203;29;20046;-78
2022/02/01 09:43:36;;;;;;;6.80;4.22;;;;;;;7.43;58.95;97510.22;9959263;29;20056;-78
2022/02/01 09:48:58;;;;;;;6.20;3.58;;;;;;;8.88;56.22;97501.97;9961458;29;20069;-77
2022/02/01 09:54:27;;;;;;;5.05;3.40;;;;;;;8.50;56.17;97499.25;9933380;29;20474;-77
2022/02/01 09:59:55;;;;;;;5.60;3.40;;;;;;;6.94;56.68;97488.34;9943446;29;20047;-78
2022/02/01 10:05:16;;;;;;;4.53;3.00;;;;;;;7.40;57.74;97468.97;9968909;29;20508;-78
2022/02/01 10:10:37;;;;;;;4.97;2.47;;;;;;;7.78;56.82;97467.59;9962661;29;20051;-78
2022/02/01 10:16:09;;;;;;;3.58;2.00;;;;;;;7.97;56.68;97451.66;9964387;29;20481;-78
2022/02/01 10:21:30;;;;;;;4.75;1.80;;;;;;;7.62;55.21;97437.28;9953349;29;20156;-78
2022/02/01 10:26:51;;;;;;;3.95;1.63;;;;;;;7.27;55.82;97431.22;9963280;29;20054;-78
2022/02/01 10:32:20;;;;;;;4.25;1.70;;;;;;;7.00;55.67;97427.78;9939361;29;20398;-78
2022/02/01 10:37:41;;;;;;;4.07;1.52;;;;;;;6.76;55.61;97421.84;9901821;30;20054;-81
2022/02/01 10:43:04;;;;;;;5.22;1.88;;;;;;;6.42;55.40;97424.72;9910492;30;20061;-76
2022/02/01 10:48:26;;;;;;;4.60;1.50;;;;;;;6.15;55.51;97413.59;9959256;29;20052;-81
2022/02/01 10:53:47;;;;;;;4.55;1.52;;;;;;;5.94;55.64;97412.00;10005499;29;20053;-82
2022/02/01 10:59:08;;;;;;;10.48;1.73;;;;;;;5.86;55.26;97414.09;10025501;29;20115;-82
2022/02/01 11:04:33;;;;;;;6.72;1.40;;;;;;;5.79;55.11;97395.53;10412543;24;20057;-81
2022/02/01 11:09:54;;;;;;;6.68;1.30;;;;;;;5.73;55.14;97397.81;9988728;29;20744;-77
2022/02/01 11:15:21;;;;;;;7.60;1.63;;;;;;;5.82;54.73;97388.84;9986107;29;20046;-77
2022/02/01 11:20:47;;;;;;;9.90;1.83;;;;;;;6.03;54.07;97391.22;9985197;29;20502;-78
2022/02/01 11:26:20;;;;;;;4.47;1.30;;;;;;;6.09;54.21;97377.84;9988127;29;20129;-77
2022/02/01 11:31:46;;;;;;;8.63;1.88;;;;;;;6.01;54.01;97358.53;9998618;29;20053;-78
2022/02/01 11:37:10;;;;;;;6.82;1.42;;;;;;;5.76;54.01;97360.66;9998060;29;20048;-78
2022/02/01 11:42:33;;;;;;;7.20;1.50;;;;;;;5.72;53.49;97354.81;9994192;29;20046;-77
2022/02/01 11:47:54;;;;;;;4.55;1.33;;;;;;;5.61;53.83;97352.53;9985975;29;20046;-78
2022/02/01 11:53:40;;;;;;;7.57;1.40;;;;;;;5.75;54.02;97348.13;9990568;29;20413;-78
2022/02/01 11:59:03;;;;;;;5.63;1.50;;;;;;;5.83;54.40;97351.53;9973174;29;20489;-78
2022/02/01 12:04:24;;;;;;;6.72;1.77;;;;;;;5.80;53.79;97358.22;9985194;29;20058;-78
2022/02/01 12:09:45;;;;;;;7.18;1.90;;;;;;;5.70;53.53;97340.81;9997436;29;20046;-78
2022/02/01 12:15:06;;;;;;;8.98;1.50;;;;;;;5.48;53.76;97350.81;9984309;29;20050;-78
2022/02/01 12:20:27;;;;;;;8.93;1.48;;;;;;;5.23;54.58;97330.78;9996724;29;20053;-78
2022/02/01 12:25:48;;;;;;;6.80;1.30;;;;;;;4.98;55.09;97328.81;9996537;29;20050;-78
2022/02/01 12:31:12;;;;;;;9.23;1.75;;;;;;;4.86;55.03;97323.00;9983118;29;20046;-78
2022/02/01 12:36:38;;;;;;;9.60;1.88;;;;;;;4.72;55.77;97313.53;9983600;29;20118;-78
2022/02/01 12:42:02;;;;;;;8.65;1.75;;;;;;;4.59;55.80;97317.34;9966853;29;20462;-78
2022/02/01 12:47:24;;;;;;;9.73;1.73;;;;;;;4.64;55.60;97290.03;9974990;29;20046;-78
2022/02/01 12:53:03;;;;;;;8.00;1.70;;;;;;;4.66;55.63;97293.69;9972369;29;20045;-78
2022/02/01 12:58:24;;;;;;;9.02;2.53;;;;;;;4.57;55.14;97270.16;9947395;29;20501;-78
2022/02/01 13:03:45;;;;;;;11.50;2.30;;;;;;;4.48;55.89;97253.47;9964847;29;20054;-78
2022/02/01 13:14:46;;;;;;;10.23;2.13;;;;;;;4.31;56.38;97243.84;9931794;29;20076;-79
2022/02/01 13:20:19;;;;;;;8.27;1.30;;;;;;;4.24;56.44;97239.09;9925902;29;20053;-78
2022/02/01 13:25:44;;;;;;;6.82;1.35;;;;;;;4.24;56.84;97213.50;9932654;29;20490;-78
2022/02/01 13:31:07;;;;;;;4.88;1.25;;;;;;;4.26;57.26;97208.16;9925100;29;20042;-78
2022/02/01 13:36:30;;;;;;;9.15;2.28;;;;;;;4.25;56.93;97171.53;9941962;29;20043;-78
2022/02/01 13:42:00;;;;;;;8.23;1.60;;;;;;;4.18;57.89;97158.50;9934218;29;20043;-78
2022/02/01 13:47:43;;;;;;;5.78;1.38;;;;;;;4.24;57.00;97158.97;9941722;29;20053;-78
2022/02/01 13:53:06;;;;;;;5.32;1.30;;;;;;;4.27;57.12;97129.50;9934102;29;20407;-78
2022/02/01 13:58:30;;;;;;;5.78;1.23;;;;;;;4.34;57.07;97152.81;9926104;29;20043;-78
2022/02/01 14:03:59;;;;;;;7.90;1.25;;;;;;;4.24;57.06;97130.63;9956769;29;20063;-78
2022/02/01 14:26:39;;;;;;;4.53;1.33;;;;;;;3.86;58.30;97067.44;9961182;29;20111;-78
2022/02/01 14:37:40;;;;;;;4.63;1.33;;;;;;;3.64;59.42;97036.72;9956928;29;20057;-77
2022/02/01 14:43:35;;;;;;;4.68;1.23;;;;;;;3.54;59.83;97026.88;9973205;29;20398;-78
2022/02/01 14:48:42;;;;;;;4.70;1.15;;;;;;;3.46;59.90;97037.97;9961773;29;20046;-78
2022/02/01 14:54:09;;;;;;;4.13;1.08;;;;;;;3.47;60.17;96978.72;9944971;29;20046;-79
2022/02/01 15:16:24;;;;;;;5.20;1.15;;;;;;;3.41;60.46;96893.44;10018254;29;20046;-81
2022/02/01 15:21:48;;;;;;;4.22;1.45;;;;;;;3.38;60.95;96871.78;10031450;29;20046;-80
2022/02/01 15:27:29;;;;;;;4.75;1.30;;;;;;;3.34;60.74;96847.34;10018011;29;20142;-80
2022/02/01 15:32:51;;;;;;;4.35;1.02;;;;;;;3.39;60.64;96823.59;9998152;29;20398;-80
2022/02/01 15:38:15;;;;;;;4.18;1.13;;;;;;;3.40;61.11;96825.06;9996489;29;20046;-79
2022/02/01 16:00:45;;;;;;;5.40;1.48;;;;;;;2.78;64.28;96760.78;10004597;29;20469;-81
2022/02/01 16:06:06;;;;;;;3.60;1.65;;;;;;;2.73;64.76;96750.75;10002216;29;20065;-81
2022/02/01 16:11:27;;;;;;;3.85;1.65;;;;;;;2.59;65.53;96731.00;10020847;29;20052;-83
2022/02/01 16:16:50;;;;;;;5.60;1.48;;;;;;;2.50;67.24;96732.38;10009886;29;20053;-79
2022/02/01 16:22:11;;;;;;;5.88;1.48;;;;;;;2.47;66.99;96692.19;9996191;29;20041;-78
2022/02/01 16:27:32;;;;;;;5.30;1.33;;;;;;;2.48;67.96;96688.16;10001296;29;20132;-83
2022/02/01 16:32:54;;;;;;;4.03;1.30;;;;;;;2.43;68.28;96677.38;11220821;24;20060;-80
2022/02/01 16:38:24;;;;;;;4.80;1.25;;;;;;;2.34;69.33;96645.69;10795348;24;20058;-81
2022/02/01 16:43:51;;;;;;;3.42;1.05;;;;;;;2.28;69.49;96625.91;10012276;29;20105;-79
2022/02/01 16:49:13;;;;;;;2.55;0.98;;;;;;;2.21;69.87;96621.94;10040004;29;20058;-78
2022/02/01 16:54:43;;;;;;;4.18;1.20;;;;;;;2.16;70.78;96602.91;10009712;29;20136;-78
2022/02/01 17:00:12;;;;;;;2.45;0.93;;;;;;;2.24;70.58;96614.59;9998202;29;20080;-79
2022/02/01 17:05:34;;;;;;;3.33;0.90;;;;;;;2.26;70.75;96623.00;10038997;29;20045;-78
2022/02/01 17:11:11;;;;;;;1.60;0.65;;;;;;;2.32;71.24;96620.75;10015605;29;20050;-78
2022/02/01 17:22:11;;;;;;;1.65;0.55;;;;;;;2.55;70.64;96592.94;9999420;29;20045;-78
2022/02/01 17:27:32;;;;;;;0.73;0.38;;;;;;;2.64;70.63;96597.81;9994973;29;20046;-77
2022/02/01 17:32:54;;;;;;;1.77;0.40;;;;;;;2.65;70.10;96579.97;9981728;29;20046;-76
2022/02/01 17:38:18;;;;;;;1.77;0.50;;;;;;;2.63;70.10;96565.31;10020445;29;20077;-81
2022/02/01 17:43:40;;;;;;;3.42;0.93;;;;;;;2.56;70.97;96567.59;10009260;29;20062;-81
2022/02/01 17:49:02;;;;;;;2.47;0.60;;;;;;;2.51;71.07;96551.28;10010015;29;20046;-77
2022/02/01 17:54:26;;;;;;;1.27;0.40;;;;;;;2.48;71.79;96520.13;9969292;29;20075;-78
2022/02/01 17:59:50;;;;;;;1.45;0.57;;;;;;;2.48;72.09;96517.34;9981902;29;20405;-77
2022/02/01 18:05:11;;;;;;;1.90;0.55;;;;;;;2.38;71.83;96518.59;10032016;29;20046;-77
2022/02/01 18:10:32;;;;;;;2.00;0.50;;;;;;;2.35;72.72;96501.19;10031793;29;20105;-77
2022/02/01 18:15:57;;;;;;;1.13;0.47;;;;;;;2.25;72.90;96489.38;10019251;29;20050;-77
2022/02/01 18:21:18;;;;;;;;;;;;;;;2.12;73.86;96504.19;10059430;29;20053;-81
2022/02/01 18:26:43;;;;;;;1.15;0.30;;;;;;;1.99;74.04;96488.00;10038959;29;20263;-79
2022/02/01 18:32:05;;;;;;;0.75;0.35;;;;;;;1.95;74.70;96510.44;10046897;29;20042;-81
2022/02/01 18:37:34;;;;;;;1.40;0.40;;;;;;;1.99;74.77;96496.28;10028174;29;20062;-78
2022/02/01 18:43:10;;;;;;;0.80;0.40;;;;;;;1.98;75.62;96495.53;10028750;29;20053;-79
2022/02/01 18:48:31;;;;;;;0.93;0.45;;;;;;;2.00;75.49;96497.72;10048315;29;20045;-80
2022/02/01 18:54:30;;;;;;;1.10;0.40;;;;;;;2.04;75.75;96492.56;10029499;29;20428;-78
2022/02/01 18:59:47;;;;;;;1.23;0.77;;;;;;;2.07;75.35;96474.91;10048490;29;20062;-81
2022/02/01 19:16:30;;;;;;;0.70;0.40;;;;;;;2.00;75.90;96462.66;10011891;29;20042;-78
2022/02/01 19:21:51;;;;;;;1.13;0.40;;;;;;;2.01;76.33;96483.41;9999132;29;20054;-78
2022/02/01 19:27:12;;;;;;;1.05;0.40;;;;;;;2.09;75.98;96488.09;9998919;29;20046;-78
2022/02/01 19:32:36;;;;;;;1.52;0.50;;;;;;;2.10;75.87;96484.75;10011333;29;20050;-78
2022/02/01 19:38:00;;;;;;;0.90;0.30;;;;;;;2.03;75.80;96496.63;9999533;29;20062;-77
2022/02/01 19:43:24;;;;;;;0.90;0.50;;;;;;;1.96;76.09;96476.13;10011024;29;20046;-77
2022/02/01 19:48:46;;;;;;;0.75;0.43;;;;;;;1.99;76.22;96446.72;9986230;29;20110;-79
2022/02/01 19:54:07;;;;;;;0.88;0.38;;;;;;;2.11;75.41;96457.97;9985687;29;20046;-77
2022/02/01 19:59:33;;;;;;;0.90;0.32;;;;;;;2.18;75.82;96470.91;10010801;29;20520;-78
2022/02/01 20:04:56;;;;;;;0.90;0.30;;;;;;;2.18;75.54;96468.91;9985437;29;20053;-78
2022/02/01 20:10:19;;;;;;;1.30;0.40;;;;;;;2.06;75.45;96462.44;9984837;29;20050;-79
2022/02/01 20:15:42;;;;;;;0.90;0.32;;;;;;;2.16;75.97;96459.75;9997820;29;20655;-78
2022/02/01 20:21:04;;;;;;;1.23;0.20;;;;;;;2.23;75.50;96445.16;9997350;29;20460;-78
2022/02/01 20:26:25;;;;;;;0.75;0.30;;;;;;;2.28;75.43;96444.91;9996983;29;20046;-79
2022/02/01 20:31:54;;;;;;;0.80;0.28;;;;;;;2.28;75.00;96452.44;9982729;29;20088;-78
2022/02/01 20:37:16;;;;;;;0.60;0.20;;;;;;;2.18;75.25;96460.63;9996329;29;20171;-79
2022/02/01 20:42:37;;;;;;;0.30;0.20;;;;;;;2.16;75.30;96454.97;9996636;29;20102;-79
2022/02/01 20:48:02;;;;;;;1.27;0.25;;;;;;;2.15;75.56;96447.28;9997402;29;20089;-77
2022/02/01 20:53:23;;;;;;;1.02;0.20;;;;;;;2.15;75.51;96466.56;9995242;29;20442;-77
2022/02/01 20:58:44;;;;;;;0.32;0.20;;;;;;;2.24;75.61;96460.38;9995697;29;20409;-77
2022/02/01 21:04:05;;;;;;;0.95;0.20;;;;;;;2.29;75.04;96429.84;9971134;29;20406;-77
2022/02/01 21:09:26;;;;;;;0.63;0.30;;;;;;;2.30;75.35;96452.59;9995324;29;20401;-78
2022/02/01 21:14:47;;;;;;;0.70;0.20;;;;;;;2.34;75.20;96433.63;9990791;29;20508;-79
2022/02/01 21:20:09;;;;;;;0.70;0.20;;;;;;;2.42;75.33;96448.03;10017841;29;20054;-80
2022/02/01 21:25:30;;;;;;;0.60;0.20;;;;;;;2.55;74.92;96457.97;10000284;29;20053;-81
2022/02/01 21:30:53;;;;;;;0.55;0.20;;;;;;;2.62;74.75;96454.38;10004870;29;20049;-77
2022/02/01 21:36:14;;;;;;;0.60;0.20;;;;;;;2.67;74.69;96449.91;9994657;29;20599;-76
2022/02/01 21:41:35;;;;;;;0.60;0.20;;;;;;;2.72;75.10;96443.41;10007335;29;20053;-78
2022/02/01 21:46:57;;;;;;;0.90;0.30;;;;;;;2.68;74.77;96440.31;10016670;29;20433;-78
2022/02/01 21:52:22;;;;;;;0.37;0.20;;;;;;;2.66;75.17;96431.91;10013266;29;20147;-78
2022/02/01 21:57:43;;;;;;;1.73;0.10;;;;;;;2.64;74.94;96429.00;10002922;29;20069;-78
2022/02/01 22:03:04;;;;;;;0.20;0.10;;;;;;;2.55;74.84;96411.13;10000862;29;20124;-78
2022/02/01 22:08:26;;;;;;;0.88;0.15;;;;;;;2.44;75.20;96423.41;10018253;29;20042;-78
2022/02/01 22:13:46;;;;;;;0.57;0.17;;;;;;;2.56;75.44;96412.59;10010741;29;20480;-78
2022/02/01 22:19:08;;;;;;;1.02;0.30;;;;;;;2.51;75.08;96384.00;10024959;29;20050;-78
2022/02/01 22:24:30;;;;;;;0.65;0.20;;;;;;;2.63;75.45;96394.50;10028215;29;20057;-78
2022/02/01 22:29:52;;;;;;;0.90;0.20;;;;;;;2.70;75.33;96418.44;10031428;29;20120;-78
2022/02/01 22:35:13;;;;;;;2.30;0.20;;;;;;;2.78;74.94;96433.56;10031239;29;20480;-78
2022/02/01 22:40:34;;;;;;;0.50;0.20;;;;;;;2.95;75.31;96440.31;10031514;29;20049;-78
2022/02/01 22:45:55;;;;;;;2.75;0.30;;;;;;;3.08;75.15;96465.44;10018533;29;20049;-78
2022/02/01 22:51:23;;;;;;;0.90;0.20;;;;;;;3.13;74.68;96469.25;10018101;29;20049;-78
2022/02/01 22:56:44;;;;;;;0.95;0.20;;;;;;;3.09;74.72;96449.66;10044255;29;20049;-78
2022/02/01 23:02:05;;;;;;;1.33;0.20;;;;;;;3.06;75.14;96442.50;10043465;29;20056;-78
2022/02/01 23:07:26;;;;;;;1.80;0.43;;;;;;;3.04;75.22;96434.81;10017787;29;20050;-78
2022/02/01 23:18:26;;;;;;;1.15;0.30;;;;;;;2.80;75.37;96428.22;10028040;29;20053;-78
2022/02/01 23:23:49;;;;;;;2.05;0.40;;;;;;;2.71;75.76;96433.69;10024715;29;20053;-78
2022/02/01 23:29:11;;;;;;;1.50;0.30;;;;;;;2.64;75.74;96431.75;10024879;29;20056;-78
2022/02/01 23:40:37;;;;;;;1.58;0.30;;;;;;;2.58;76.42;96438.25;10038894;29;20065;-79
2022/02/01 23:51:54;;;;;;;2.05;0.40;;;;;;;2.85;76.34;96449.25;9999692;29;20061;-78
2022/02/01 23:57:17;;;;;;;1.15;0.28;;;;;;;3.08;75.74;96446.13;10035594;29;20048;-78
